Time;durP1;ratioP1;P1;durP2;ratioP2;P2;SDS_P1;SDS_P2;PMS_P1;PMS_P2;Temp;Humidity;BMP_temperature;BMP_pressure;BME280_temperature;BME280_humidity;BME280_pressure;Samples;Min_cycle;Max_cycle;Signal;HPM_P1;HPM_P2
2023/01/12 00:02:11;;;;;;;9.70;2.80;;;;;;;7.66;50.83;98995.41;4479232;32;20143;-85
2023/01/12 00:04:37;;;;;;;9.15;2.87;;;;;;;7.72;50.99;98999.56;4456404;32;20483;-86
2023/01/12 00:07:07;;;;;;;6.80;2.25;;;;;;;7.77;51.11;98997.63;4456049;32;20101;-86
2023/01/12 00:09:33;;;;;;;6.85;1.92;;;;;;;7.74;51.11;99005.59;4456284;32;20508;-86
2023/01/12 00:11:58;;;;;;;7.12;1.90;;;;;;;7.76;50.89;99011.63;4456115;32;20120;-88
2023/01/12 00:14:24;;;;;;;6.37;1.70;;;;;;;7.80;50.93;99013.22;4470213;32;20128;-87
2023/01/12 00:16:49;;;;;;;7.47;2.00;;;;;;;7.76;51.07;99014.25;4456111;32;20445;-86
2023/01/12 00:19:15;;;;;;;7.47;2.03;;;;;;;7.77;51.17;99010.75;4469991;32;20084;-86
2023/01/12 00:22:24;;;;;;;7.57;2.00;;;;;;;7.77;51.37;99008.97;4470089;32;20123;-86
2023/01/12 00:24:39;;;;;;;7.10;1.73;;;;;;;7.76;51.66;99004.63;4463507;32;20475;-87
2023/01/12 00:27:07;;;;;;;6.05;1.60;;;;;;;7.75;51.23;99013.41;4455931;32;20440;-87
2023/01/12 00:29:32;;;;;;;6.50;1.75;;;;;;;7.77;50.09;99011.59;4455863;32;20369;-89
2023/01/12 00:31:59;;;;;;;7.40;2.17;;;;;;;7.94;50.08;99012.66;4455778;32;20155;-87
2023/01/12 00:34:25;;;;;;;8.38;2.50;;;;;;;8.03;50.43;99001.81;4455880;32;20104;-87
2023/01/12 00:36:51;;;;;;;9.35;2.75;;;;;;;8.07;50.67;99004.25;4469833;32;20084;-87
2023/01/12 00:39:16;;;;;;;8.88;2.50;;;;;;;8.11;50.74;99001.50;4469841;32;20119;-86
2023/01/12 00:47:11;;;;;;;7.78;2.47;;;;;;;8.18;50.50;99011.69;4472319;32;20115;-87
2023/01/12 00:49:38;;;;;;;9.95;2.60;;;;;;;8.24;50.71;99013.19;4472123;32;20111;-87
2023/01/12 00:52:05;;;;;;;8.88;2.92;;;;;;;8.30;50.69;99006.84;4472418;32;20401;-87
2023/01/12 00:54:31;;;;;;;8.43;2.62;;;;;;;8.46;50.68;99007.94;4457996;32;20178;-89
2023/01/12 00:56:57;;;;;;;9.43;2.70;;;;;;;8.42;50.81;99009.84;4471945;32;20085;-89
2023/01/12 00:59:22;;;;;;;9.35;2.55;;;;;;;8.25;50.73;99012.28;4457988;32;20115;-89
2023/01/12 01:01:48;;;;;;;9.32;2.95;;;;;;;8.39;50.74;99012.56;4457952;32;20112;-89
2023/01/12 01:04:13;;;;;;;8.05;2.50;;;;;;;8.45;51.06;99008.84;4472072;32;20100;-88
2023/01/12 01:06:39;;;;;;;9.40;2.33;;;;;;;8.55;51.52;99014.56;4471773;32;20154;-88
2023/01/12 01:09:05;;;;;;;8.18;1.98;;;;;;;8.54;51.74;99018.97;4471906;32;20130;-88
2023/01/12 01:11:30;;;;;;;5.28;1.30;;;;;;;8.57;51.65;99017.97;4457740;32;20130;-87
2023/01/12 01:13:56;;;;;;;9.85;1.90;;;;;;;8.59;51.12;99024.87;4472202;32;20476;-88
2023/01/12 01:16:21;;;;;;;9.35;2.75;;;;;;;8.70;50.83;99026.19;4472269;32;20080;-88
2023/01/12 01:18:47;;;;;;;10.38;2.90;;;;;;;8.77;51.33;99025.00;4471934;32;20108;-90
2023/01/12 01:21:13;;;;;;;8.05;2.40;;;;;;;8.83;51.82;99022.12;4457794;32;20124;-90
2023/01/12 01:23:39;;;;;;;9.45;2.25;;;;;;;8.74;52.33;99027.78;4471966;32;20101;-90
2023/01/12 01:26:07;;;;;;;9.55;2.53;;;;;;;8.56;53.10;99035.50;4457647;32;20084;-91
2023/01/12 01:28:33;;;;;;;7.57;2.40;;;;;;;8.64;53.65;99037.81;4457796;32;20115;-90
2023/01/12 01:31:07;;;;;;;9.80;3.30;;;;;;;8.71;53.29;99036.66;4471907;32;20116;-90
2023/01/12 01:33:32;;;;;;;9.60;3.40;;;;;;;8.72;53.25;99033.09;4471912;32;20118;-90
2023/01/12 01:35:58;;;;;;;10.93;3.72;;;;;;;8.63;53.72;99042.22;4457720;32;20080;-90
2023/01/12 01:38:24;;;;;;;12.48;4.95;;;;;;;8.55;54.47;99044.28;4457553;32;20085;-89
2023/01/12 01:40:49;;;;;;;15.18;5.10;;;;;;;8.56;54.39;99045.19;4471695;32;20092;-89
2023/01/12 01:43:16;;;;;;;12.05;4.78;;;;;;;8.59;54.28;99052.91;4457599;32;20136;-90
2023/01/12 01:45:43;;;;;;;13.50;4.85;;;;;;;8.51;54.28;99047.13;4457506;32;20388;-89
2023/01/12 01:48:11;;;;;;;13.73;5.10;;;;;;;8.49;54.19;99046.34;4457573;32;20111;-90
2023/01/12 01:50:37;;;;;;;;;;;;;;;8.39;54.84;99046.69;4472112;32;20101;-90
2023/01/12 01:53:15;;;;;;;14.77;6.20;;;;;;;8.39;55.13;99051.94;4457298;32;20003;-90
2023/01/12 01:55:47;;;;;;;17.15;6.75;;;;;;;8.28;54.85;99043.66;4457668;32;20107;-90
2023/01/12 01:58:19;;;;;;;13.13;5.05;;;;;;;8.24;54.69;99042.06;4457824;32;20111;-90
2023/01/12 02:00:45;;;;;;;16.33;5.40;;;;;;;8.21;54.96;99045.69;4457444;32;20093;-85
2023/01/12 02:03:12;;;;;;;16.00;5.85;;;;;;;8.11;55.22;99046.09;4471583;32;20111;-85
2023/01/12 02:05:40;;;;;;;15.38;6.43;;;;;;;8.13;55.29;99047.78;4457643;32;20085;-86
2023/01/12 02:08:34;;;;;;;13.50;6.00;;;;;;;8.12;55.41;99053.91;4457359;32;20069;-86
2023/01/12 02:11:00;;;;;;;20.17;6.70;;;;;;;7.44;58.03;99064.41;4471655;32;20092;-86
2023/01/12 02:16:22;;;;;;;14.98;5.80;;;;;;;7.61;57.60;99057.66;4471669;32;20487;-85
2023/01/12 02:19:24;;;;;;;16.40;6.45;;;;;;;7.73;57.39;99062.44;4457456;32;20156;-86
2023/01/12 02:22:08;;;;;;;18.25;7.03;;;;;;;7.81;57.15;99062.16;4471865;32;20096;-86
2023/01/12 02:24:36;;;;;;;13.77;5.87;;;;;;;7.88;57.20;99063.63;4471413;32;20157;-88
2023/01/12 02:27:20;;;;;;;;;;;;;;;7.81;57.46;99062.16;4471903;32;20102;-87
2023/01/12 02:30:12;;;;;;;14.70;6.18;;;;;;;7.90;57.38;99063.53;4471796;32;19983;-88
2023/01/12 02:32:38;;;;;;;17.42;6.68;;;;;;;7.88;57.32;99055.75;4471700;32;20522;-88
2023/01/12 02:35:29;;;;;;;16.52;6.53;;;;;;;7.84;57.54;99057.66;4471494;32;20085;-86
2023/01/12 02:38:25;;;;;;;16.67;6.90;;;;;;;7.94;57.49;99054.63;4463891;32;20084;-86
2023/01/12 02:42:39;;;;;;;17.73;7.55;;;;;;;7.91;57.36;99060.03;4471337;32;20065;-87
2023/01/12 02:44:15;;;;;;;16.92;6.65;;;;;;;7.70;57.89;99059.09;4471095;32;20396;-88
2023/01/12 02:46:43;;;;;;;16.60;7.05;;;;;;;7.76;57.84;99064.09;4457277;32;20096;-88
2023/01/12 02:49:13;;;;;;;15.95;6.28;;;;;;;7.56;58.85;99057.84;4444165;32;20183;-86
2023/01/12 02:52:08;;;;;;;14.95;5.40;;;;;;;7.34;59.71;99051.69;4456933;32;20110;-90
2023/01/12 02:54:34;;;;;;;13.82;5.72;;;;;;;7.66;58.84;99053.09;4444287;32;20148;-89
2023/01/12 02:57:03;;;;;;;17.23;6.87;;;;;;;7.43;59.15;99049.56;4457325;32;20120;-90
2023/01/12 02:59:34;;;;;;;14.75;5.72;;;;;;;7.41;59.64;99034.81;4457439;32;20566;-91
2023/01/12 03:02:26;;;;;;;13.88;5.57;;;;;;;7.54;59.51;99036.06;4457024;32;20153;-91
2023/01/12 03:04:52;;;;;;;14.43;5.15;;;;;;;7.76;59.38;99046.56;4467390;32;20506;-88
2023/01/12 03:07:24;;;;;;;13.35;5.75;;;;;;;7.86;59.10;99042.69;4457058;32;20104;-88
2023/01/12 03:09:58;;;;;;;14.18;5.55;;;;;;;7.90;58.81;99048.69;4456808;32;20532;-88
2023/01/12 03:12:26;;;;;;;13.43;5.30;;;;;;;7.54;59.76;99053.59;4456998;32;20068;-88
2023/01/12 03:14:53;;;;;;;12.75;4.68;;;;;;;7.01;61.48;99052.00;4456926;32;20120;-88
2023/01/12 03:17:30;;;;;;;14.30;5.32;;;;;;;6.83;62.50;99059.59;4457074;32;20163;-88
2023/01/12 03:20:01;;;;;;;16.00;5.87;;;;;;;6.49;63.70;99055.53;4457294;32;20106;-88
2023/01/12 03:22:28;;;;;;;13.40;4.62;;;;;;;6.39;64.33;99054.13;4457132;32;20092;-88
2023/01/12 03:24:57;;;;;;;13.93;4.87;;;;;;;7.07;62.34;99036.09;4456652;32;20160;-88
2023/01/12 03:27:33;;;;;;;14.90;5.57;;;;;;;7.29;61.96;99031.75;4456766;32;20188;-88
2023/01/12 03:30:03;;;;;;;13.30;4.97;;;;;;;7.42;61.90;99026.06;4470969;32;20165;-89
2023/01/12 03:32:29;;;;;;;15.52;4.75;;;;;;;7.48;61.82;99024.06;4456620;32;20190;-88
2023/01/12 03:34:54;;;;;;;12.63;4.78;;;;;;;7.61;61.56;99020.94;4456871;32;20101;-89
2023/01/12 03:37:23;;;;;;;14.00;4.97;;;;;;;7.70;61.35;99027.63;4456701;32;20116;-88
2023/01/12 03:40:08;;;;;;;13.82;4.57;;;;;;;7.75;61.23;99029.16;4456547;32;20092;-89
2023/01/12 03:42:46;;;;;;;11.43;4.10;;;;;;;7.92;60.82;99028.50;4470848;32;20448;-89
2023/01/12 03:45:18;;;;;;;12.30;4.00;;;;;;;7.94;60.74;99031.03;4443546;32;20168;-88
2023/01/12 03:47:43;;;;;;;11.15;4.70;;;;;;;8.05;60.61;99037.59;4470668;32;20084;-92
2023/01/12 03:50:17;;;;;;;14.90;5.70;;;;;;;7.96;60.39;99045.81;4470602;32;20145;-92
2023/01/12 03:52:44;;;;;;;14.05;5.65;;;;;;;8.07;60.17;99029.62;4470564;32;20519;-92
2023/01/12 03:55:13;;;;;;;12.65;4.70;;;;;;;8.11;60.25;99027.72;4470705;32;20184;-91
2023/01/12 03:57:38;;;;;;;11.82;4.15;;;;;;;8.14;60.50;99025.84;4456539;32;20105;-91
2023/01/12 04:00:06;;;;;;;13.13;4.18;;;;;;;8.10;60.62;99031.28;4456245;32;20110;-88
2023/01/12 04:02:32;;;;;;;;;;;;;;;8.17;60.54;99023.09;4443593;32;20130;-88
2023/01/12 04:04:57;;;;;;;11.52;4.05;;;;;;;8.27;60.47;99016.56;4470344;32;20017;-88
2023/01/12 04:07:23;;;;;;;14.43;5.10;;;;;;;8.32;60.35;99021.59;4443026;32;20115;-88
2023/01/12 04:09:49;;;;;;;13.45;4.93;;;;;;;8.23;59.48;99020.22;4470337;32;20103;-88
2023/01/12 04:12:14;;;;;;;13.68;5.25;;;;;;;8.33;59.34;99022.47;4470330;32;20088;-88
2023/01/12 04:14:44;;;;;;;14.55;5.53;;;;;;;8.38;59.04;99026.63;4470155;32;20452;-87
2023/01/12 04:17:12;;;;;;;14.80;5.18;;;;;;;8.22;58.84;99031.63;4458209;32;20160;-88
2023/01/12 04:19:38;;;;;;;14.00;5.05;;;;;;;8.11;58.64;99018.09;4458267;32;20566;-94
2023/01/12 04:24:47;;;;;;;13.68;5.15;;;;;;;8.07;58.93;99017.37;4460840;32;20116;-92
2023/01/12 04:27:16;;;;;;;13.88;6.15;;;;;;;8.10;59.31;99018.16;4458375;32;20101;-92
2023/01/12 04:29:42;;;;;;;14.45;5.53;;;;;;;8.14;59.46;99022.38;4472515;32;20092;-92
2023/01/12 04:32:07;;;;;;;14.98;5.10;;;;;;;8.22;59.36;99023.75;4472233;32;20099;-92
2023/01/12 04:34:33;;;;;;;15.95;5.60;;;;;;;8.18;59.53;99024.81;4458165;32;20116;-87
2023/01/12 04:37:00;;;;;;;14.68;5.20;;;;;;;8.27;59.47;99023.59;4458050;32;20093;-86
2023/01/12 04:39:25;;;;;;;14.73;5.87;;;;;;;8.31;59.44;99019.91;4458090;32;20125;-86
2023/01/12 04:41:51;;;;;;;16.12;6.05;;;;;;;8.42;59.05;99025.59;4472023;32;20493;-86
2023/01/12 04:44:16;;;;;;;15.48;5.45;;;;;;;8.38;58.99;99024.00;4472056;32;20120;-88
2023/01/12 04:46:41;;;;;;;15.43;5.37;;;;;;;8.43;58.92;99027.28;4457953;32;20097;-87
2023/01/12 04:49:07;;;;;;;16.58;5.78;;;;;;;8.48;59.07;99024.50;4457971;32;20080;-86
2023/01/12 04:51:32;;;;;;;15.70;5.47;;;;;;;8.52;58.97;99023.44;4457877;32;20194;-85
2023/01/12 04:53:58;;;;;;;16.77;6.47;;;;;;;8.54;58.58;99020.75;4472222;32;20145;-85
2023/01/12 04:56:24;;;;;;;16.30;5.82;;;;;;;8.55;58.35;99027.69;4471951;32;20428;-86
2023/01/12 04:58:54;;;;;;;18.08;6.03;;;;;;;8.57;58.27;99024.06;4472098;32;20088;-86
2023/01/12 05:01:21;;;;;;;15.27;5.43;;;;;;;8.54;58.30;99031.25;4472108;32;20098;-87
2023/01/12 05:03:46;;;;;;;17.10;6.18;;;;;;;8.41;58.55;99028.25;4457817;32;20449;-87
2023/01/12 05:06:12;;;;;;;15.80;6.20;;;;;;;8.50;58.47;99029.66;4471977;32;20089;-86
2023/01/12 05:11:28;;;;;;;14.10;5.80;;;;;;;8.41;58.89;99037.00;4460039;32;20201;-87
2023/01/12 05:13:55;;;;;;;13.75;5.10;;;;;;;8.34;58.66;99037.28;4472064;32;20135;-88
2023/01/12 05:16:20;;;;;;;14.73;5.50;;;;;;;8.41;58.40;99044.88;4457737;32;20101;-87
2023/01/12 05:18:46;;;;;;;15.30;6.25;;;;;;;8.45;58.36;99046.47;4457724;32;20121;-88
2023/01/12 05:21:16;;;;;;;15.88;5.60;;;;;;;8.51;58.58;99047.97;4471879;32;20111;-88
2023/01/12 05:23:43;;;;;;;14.07;5.45;;;;;;;8.54;58.81;99049.63;4472098;32;20111;-88
2023/01/12 05:26:09;;;;;;;15.35;6.32;;;;;;;8.59;58.55;99035.38;4471763;32;20357;-88
2023/01/12 05:28:35;;;;;;;16.37;6.30;;;;;;;8.62;58.74;99042.28;4471318;32;20097;-88
2023/01/12 05:31:05;;;;;;;14.25;5.93;;;;;;;8.60;59.01;99044.97;4471807;32;20072;-84
2023/01/12 05:33:31;;;;;;;14.10;5.87;;;;;;;8.60;59.35;99042.34;4471892;32;20127;-87
2023/01/12 05:35:57;;;;;;;15.48;6.35;;;;;;;8.53;59.59;99042.66;4457759;32;20105;-88
2023/01/12 05:38:22;;;;;;;14.85;5.95;;;;;;;8.51;59.43;99042.72;4471855;32;20425;-84
2023/01/12 05:40:48;;;;;;;15.18;5.93;;;;;;;8.59;59.27;99042.41;4457666;32;20326;-85
2023/01/12 05:46:02;;;;;;;15.43;5.87;;;;;;;8.54;58.75;99052.25;4471743;32;20119;-86
2023/01/12 05:48:28;;;;;;;16.77;6.25;;;;;;;8.57;58.73;99060.00;4471656;32;20144;-87
2023/01/12 05:50:53;;;;;;;14.55;6.22;;;;;;;8.54;58.73;99061.00;4457423;32;20085;-83
2023/01/12 05:53:18;;;;;;;14.73;6.18;;;;;;;8.60;58.65;99060.72;4478271;32;20136;-89
2023/01/12 05:55:44;;;;;;;17.23;6.22;;;;;;;8.41;59.01;99052.75;4459295;32;20100;-89
2023/01/12 05:58:10;;;;;;;17.37;6.18;;;;;;;8.46;59.02;99056.06;4471640;32;20111;-88
2023/01/12 06:00:35;;;;;;;17.60;6.68;;;;;;;8.48;59.06;99049.88;4471588;32;20077;-86
2023/01/12 06:03:01;;;;;;;16.45;5.90;;;;;;;8.48;59.01;99049.88;4457445;32;20128;-84
2023/01/12 06:05:27;;;;;;;15.73;6.40;;;;;;;8.49;59.20;99043.72;4471552;32;20506;-83
2023/01/12 06:07:52;;;;;;;15.95;6.62;;;;;;;8.49;59.08;99048.97;4444237;32;20077;-82
2023/01/12 06:10:17;;;;;;;19.25;6.50;;;;;;;8.24;59.75;99042.91;4470109;32;20135;-84
2023/01/12 06:15:27;;;;;;;18.30;7.07;;;;;;;8.09;60.90;99051.41;4459600;32;20158;-82
2023/01/12 06:17:52;;;;;;;19.37;6.82;;;;;;;8.10;61.05;99057.53;4471529;32;20105;-83
2023/01/12 06:20:18;;;;;;;16.27;6.90;;;;;;;8.26;60.58;99051.56;4471481;32;20123;-83
2023/01/12 06:22:43;;;;;;;15.00;6.45;;;;;;;8.24;60.69;99057.81;4457442;32;20148;-83
2023/01/12 06:25:10;;;;;;;17.77;7.05;;;;;;;8.21;60.31;99055.34;4471457;32;20081;-83
2023/01/12 06:27:37;;;;;;;19.00;5.93;;;;;;;8.08;60.61;99061.06;4457600;32;20106;-83
2023/01/12 06:30:06;;;;;;;20.77;7.47;;;;;;;8.21;60.46;99068.47;4457704;32;20069;-82
2023/01/12 06:32:31;;;;;;;15.65;6.82;;;;;;;8.28;60.39;99072.50;4457582;32;20100;-84
2023/01/12 06:34:57;;;;;;;20.40;6.78;;;;;;;8.23;60.51;99070.09;4471599;32;20361;-85
2023/01/12 06:37:23;;;;;;;17.08;6.30;;;;;;;8.27;60.63;99071.66;4471317;32;20085;-84
2023/01/12 06:39:49;;;;;;;18.20;7.12;;;;;;;8.37;60.64;99080.03;4471491;32;20131;-84
2023/01/12 06:42:30;;;;;;;16.70;6.40;;;;;;;8.05;61.33;99084.81;4457033;32;20384;-84
2023/01/12 06:44:57;;;;;;;16.80;6.30;;;;;;;8.24;60.76;99086.69;4471397;32;20093;-84
2023/01/12 06:47:22;;;;;;;15.52;5.85;;;;;;;8.25;60.81;99091.03;4471347;32;20115;-84
2023/01/12 06:49:50;;;;;;;19.40;6.97;;;;;;;8.31;60.75;99096.03;4471340;32;20416;-84
2023/01/12 06:52:25;;;;;;;17.58;6.35;;;;;;;8.45;60.58;99095.50;4457531;32;20092;-84
2023/01/12 06:54:51;;;;;;;14.68;6.22;;;;;;;8.46;60.68;99100.69;4471470;32;20231;-84
2023/01/12 06:57:17;;;;;;;15.80;6.55;;;;;;;8.46;60.78;99099.84;4457096;32;20155;-83
2023/01/12 06:59:43;;;;;;;18.15;6.93;;;;;;;8.56;60.70;99095.91;4471278;32;20127;-83
2023/01/12 07:02:13;;;;;;;16.65;6.53;;;;;;;8.50;61.02;99105.78;4457059;32;20104;-84
2023/01/12 07:04:41;;;;;;;17.27;6.78;;;;;;;8.50;61.18;99108.41;4454259;32;87210;-85
2023/01/12 07:07:08;;;;;;;18.75;6.55;;;;;;;8.64;61.09;99103.47;4443866;32;20085;-83
2023/01/12 07:09:34;;;;;;;17.30;6.28;;;;;;;8.62;61.39;99111.41;4457370;32;20085;-83
2023/01/12 07:11:59;;;;;;;15.32;6.15;;;;;;;8.62;61.26;99108.78;4471397;32;20088;-83
2023/01/12 07:14:25;;;;;;;14.68;5.87;;;;;;;8.40;61.44;99118.41;4456892;32;20118;-83
2023/01/12 07:16:50;;;;;;;14.80;6.10;;;;;;;8.69;60.92;99114.63;4470995;32;20123;-83
2023/01/12 07:19:16;;;;;;;15.85;6.57;;;;;;;8.85;60.60;99117.47;4470837;32;20103;-83
2023/01/12 07:21:42;;;;;;;17.37;6.87;;;;;;;8.97;60.36;99118.72;4471046;32;20119;-83
2023/01/12 07:24:08;;;;;;;18.05;6.70;;;;;;;9.04;60.17;99115.78;4470944;32;20280;-83
2023/01/12 07:26:34;;;;;;;18.42;6.97;;;;;;;9.08;60.09;99120.88;4470856;32;20093;-81
2023/01/12 07:28:59;;;;;;;15.10;6.25;;;;;;;9.14;59.98;99120.62;4470831;32;20084;-82
2023/01/12 07:31:25;;;;;;;16.23;7.05;;;;;;;9.17;59.99;99118.72;4470831;32;20443;-87
2023/01/12 07:33:52;;;;;;;16.67;6.85;;;;;;;9.21;59.93;99122.94;4470823;32;20106;-81
2023/01/12 07:36:17;;;;;;;17.90;6.72;;;;;;;9.25;59.76;99116.63;4470785;32;20085;-81
2023/01/12 07:38:43;;;;;;;17.50;6.70;;;;;;;9.28;59.59;99118.25;4470754;32;20142;-80
2023/01/12 07:42:22;;;;;;;18.52;7.55;;;;;;;9.37;59.30;99125.75;4470751;32;20433;-81
2023/01/12 07:43:54;;;;;;;17.80;7.12;;;;;;;9.41;59.15;99135.19;4458701;32;20153;-80
2023/01/12 07:46:19;;;;;;;19.25;7.68;;;;;;;9.48;59.04;99129.66;4470830;32;20080;-82
2023/01/12 07:48:45;;;;;;;18.05;8.43;;;;;;;9.38;59.40;99135.31;4480577;32;21328;-84
2023/01/12 07:51:11;;;;;;;18.23;8.68;;;;;;;9.27;59.68;99142.81;4487719;31;20069;-81
2023/01/12 07:53:36;;;;;;;17.75;8.35;;;;;;;9.43;59.33;99140.41;4488505;31;20127;-88
2023/01/12 07:56:01;;;;;;;19.12;7.90;;;;;;;9.43;59.29;99145.66;4488593;31;20110;-83
2023/01/12 07:58:29;;;;;;;17.40;7.20;;;;;;;9.37;59.31;99138.88;4488427;31;20417;-84
2023/01/12 08:00:58;;;;;;;18.12;7.55;;;;;;;9.35;59.63;99131.97;4488493;31;20097;-83
2023/01/12 08:03:23;;;;;;;18.12;7.37;;;;;;;9.57;59.33;99137.16;4488321;31;20506;-83
2023/01/12 08:05:48;;;;;;;18.48;8.07;;;;;;;9.59;59.29;99133.50;4487967;32;20103;-83
2023/01/12 08:08:14;;;;;;;18.23;8.15;;;;;;;9.53;59.54;99143.47;4488052;31;20133;-83
2023/01/12 08:10:42;;;;;;;20.37;8.13;;;;;;;9.57;59.72;99147.66;4488180;31;20123;-83
2023/01/12 08:13:07;;;;;;;19.30;7.90;;;;;;;9.67;59.49;99143.69;4486960;32;20143;-83
2023/01/12 08:15:41;;;;;;;18.55;8.10;;;;;;;9.41;60.46;99148.34;4487052;32;20436;-83
2023/01/12 08:18:13;;;;;;;17.10;7.80;;;;;;;9.69;59.74;99143.62;4486953;32;20080;-83
2023/01/12 08:20:38;;;;;;;17.20;8.57;;;;;;;9.84;59.66;99148.19;4486906;32;20096;-83
2023/01/12 08:23:09;;;;;;;21.58;9.00;;;;;;;9.94;59.74;99140.72;4488059;31;20119;-83
2023/01/12 08:25:37;;;;;;;20.85;8.52;;;;;;;9.92;59.50;99147.84;4488139;31;20081;-83
2023/01/12 08:28:03;;;;;;;;;;;;;;;9.88;59.44;99149.75;4488412;31;20088;-83
2023/01/12 08:30:29;;;;;;;18.48;7.85;;;;;;;10.04;58.75;99153.41;4488170;31;19991;-83
2023/01/12 08:32:56;;;;;;;16.95;7.35;;;;;;;10.00;58.56;99145.69;4488030;31;20134;-83
2023/01/12 08:35:24;;;;;;;18.30;8.18;;;;;;;9.93;59.04;99155.66;4486700;32;20609;-83
2023/01/12 08:37:49;;;;;;;17.35;7.68;;;;;;;9.84;59.35;99156.09;4486806;32;20551;-83
2023/01/12 08:40:15;;;;;;;21.55;8.23;;;;;;;9.57;60.42;99159.03;4486936;32;20089;-83
2023/01/12 08:42:40;;;;;;;19.90;8.57;;;;;;;9.52;61.32;99154.91;4486953;32;20402;-83
2023/01/12 08:45:07;;;;;;;19.40;8.23;;;;;;;9.42;60.91;99150.03;4488127;31;20120;-83
2023/01/12 08:47:32;;;;;;;19.10;8.13;;;;;;;9.64;60.86;99149.09;4488073;31;20084;-83
2023/01/12 08:49:59;;;;;;;17.33;7.90;;;;;;;9.70;61.32;99154.09;4488179;31;20439;-83
2023/01/12 08:52:25;;;;;;;17.87;8.23;;;;;;;10.02;60.58;99151.75;4486959;32;20093;-83
2023/01/12 08:54:50;;;;;;;18.42;8.38;;;;;;;10.26;60.12;99141.84;4488108;31;20148;-83
2023/01/12 08:57:18;;;;;;;19.85;8.10;;;;;;;10.39;60.03;99148.28;4488019;31;20136;-83
2023/01/12 08:59:43;;;;;;;20.60;8.70;;;;;;;10.53;59.59;99146.75;4487817;31;20246;-83
2023/01/12 09:02:13;;;;;;;18.77;8.40;;;;;;;10.51;59.55;99146.84;4485659;32;20117;-83
2023/01/12 09:04:39;;;;;;;18.30;8.30;;;;;;;10.46;59.91;99147.97;4486396;32;20092;-83
2023/01/12 09:07:06;;;;;;;19.60;8.70;;;;;;;10.58;59.25;99150.00;4487355;31;20446;-83
2023/01/12 09:09:31;;;;;;;18.80;8.43;;;;;;;10.18;60.39;99154.53;4473450;32;20138;-83
2023/01/12 09:11:56;;;;;;;20.25;8.80;;;;;;;10.25;60.13;99145.41;4486493;32;20180;-83
2023/01/12 09:14:24;;;;;;;18.70;8.02;;;;;;;10.29;60.45;99146.97;4487931;31;20110;-83
2023/01/12 09:16:49;;;;;;;21.48;9.68;;;;;;;10.52;59.62;99148.53;4487929;31;20103;-83
2023/01/12 09:19:15;;;;;;;19.17;8.52;;;;;;;10.53;59.43;99144.12;4487947;31;20368;-83
2023/01/12 09:21:41;;;;;;;19.02;9.43;;;;;;;10.44;60.12;99155.94;4486708;32;20116;-83
2023/01/12 09:24:06;;;;;;;21.60;9.10;;;;;;;10.42;60.52;99144.62;4487821;31;20103;-83
2023/01/12 09:26:36;;;;;;;20.00;8.63;;;;;;;10.66;59.85;99150.47;4486623;32;20311;-83
2023/01/12 09:29:03;;;;;;;22.35;9.82;;;;;;;10.60;60.18;99156.94;4486695;32;20126;-83
2023/01/12 09:31:30;;;;;;;20.23;8.95;;;;;;;10.53;60.50;99158.16;4487508;31;20106;-83
2023/01/12 09:33:56;;;;;;;21.42;9.70;;;;;;;10.89;59.45;99164.31;4473506;32;20539;-83
2023/01/12 09:36:26;;;;;;;21.73;9.85;;;;;;;11.04;58.74;99163.53;4486521;32;20085;-83
2023/01/12 09:38:52;;;;;;;21.12;9.52;;;;;;;11.11;58.79;99159.66;4486403;32;20428;-83
2023/01/12 09:47:49;;;;;;;19.50;9.20;;;;;;;11.25;58.24;99148.41;4487482;32;20153;-83
2023/01/12 09:50:25;;;;;;;18.83;8.48;;;;;;;11.50;58.23;99140.06;4486249;32;20148;-83
2023/01/12 09:52:56;;;;;;;20.20;8.88;;;;;;;11.65;57.76;99143.69;4486232;32;20096;-83
2023/01/12 09:55:24;;;;;;;18.98;8.98;;;;;;;11.77;57.36;99142.19;4487474;31;20080;-83
2023/01/12 09:58:07;;;;;;;19.12;8.45;;;;;;;11.86;57.29;99143.44;4486112;32;20111;-83
2023/01/12 10:00:33;;;;;;;19.25;8.73;;;;;;;11.91;57.09;99139.66;4487491;32;20701;-83
2023/01/12 10:03:06;;;;;;;17.90;7.90;;;;;;;12.03;56.87;99142.56;4473089;32;20150;-83
2023/01/12 10:05:48;;;;;;;16.48;7.93;;;;;;;11.96;56.95;99139.44;4486061;32;20084;-83
2023/01/12 10:08:34;;;;;;;17.50;8.18;;;;;;;12.00;56.78;99133.88;4486142;32;20298;-84
2023/01/12 10:11:18;;;;;;;18.05;7.68;;;;;;;12.13;57.14;99130.56;4459873;32;20184;-83
2023/01/12 10:13:46;;;;;;;15.23;6.87;;;;;;;11.90;58.01;99130.06;4485806;32;20092;-83
2023/01/12 10:16:38;;;;;;;12.23;5.25;;;;;;;11.90;57.73;99134.47;4487188;32;20084;-83
2023/01/12 10:19:14;;;;;;;14.52;5.50;;;;;;;11.55;58.25;99126.63;4487272;32;20383;-83
2023/01/12 10:21:40;;;;;;;12.95;5.25;;;;;;;11.49;57.60;99127.84;4486142;32;20120;-83
2023/01/12 10:24:12;;;;;;;13.60;5.15;;;;;;;11.41;58.47;99125.59;4487111;31;20088;-84
2023/01/12 10:26:41;;;;;;;12.82;5.75;;;;;;;11.54;57.84;99127.56;4487139;31;20080;-83
2023/01/12 10:29:08;;;;;;;12.57;5.53;;;;;;;11.02;59.27;99126.69;4472978;32;20384;-83
2023/01/12 10:31:33;;;;;;;12.27;5.07;;;;;;;10.79;59.65;99127.84;4485874;32;20515;-84
2023/01/12 10:34:03;;;;;;;11.88;4.93;;;;;;;11.12;58.72;99131.50;4487026;31;20125;-83
2023/01/12 10:36:29;;;;;;;13.02;4.90;;;;;;;10.89;59.14;99127.41;4485834;32;20155;-84
2023/01/12 10:38:58;;;;;;;13.38;5.45;;;;;;;11.21;58.54;99137.16;4486973;31;20068;-84
2023/01/12 10:41:25;;;;;;;15.50;5.80;;;;;;;10.97;59.23;99130.50;4485917;32;20459;-83
2023/01/12 10:43:53;;;;;;;15.20;5.77;;;;;;;10.80;59.38;99132.22;4485959;32;20096;-84
2023/01/12 10:46:21;;;;;;;12.55;5.15;;;;;;;11.01;59.17;99124.16;4487011;31;20084;-83
2023/01/12 10:48:48;;;;;;;12.80;5.30;;;;;;;10.70;60.15;99130.97;4486910;31;20076;-83
2023/01/12 10:51:32;;;;;;;14.38;5.93;;;;;;;10.75;59.79;99136.00;4485882;32;20118;-83
2023/01/12 10:54:01;;;;;;;14.87;6.03;;;;;;;10.54;60.54;99125.59;4486045;32;20100;-83
2023/01/12 10:56:38;;;;;;;13.43;5.82;;;;;;;10.32;61.64;99128.41;4486138;32;20444;-83
2023/01/12 10:59:09;;;;;;;12.93;5.65;;;;;;;11.13;59.42;99120.88;4486188;32;20471;-83
2023/01/12 11:01:51;;;;;;;13.02;5.50;;;;;;;10.60;61.23;99122.69;4486795;32;20118;-83
2023/01/12 11:04:21;;;;;;;15.60;6.50;;;;;;;11.32;59.22;99112.00;4485386;32;20456;-83
2023/01/12 11:07:00;;;;;;;16.30;6.50;;;;;;;10.95;59.63;99114.78;4472070;32;20088;-83
2023/01/12 11:09:27;;;;;;;14.68;6.43;;;;;;;11.28;58.81;99105.19;4485774;32;20419;-83
2023/01/12 11:12:04;;;;;;;14.98;6.10;;;;;;;11.32;58.56;99106.72;4485862;32;20126;-83
2023/01/12 11:14:36;;;;;;;13.40;6.12;;;;;;;11.41;58.27;99107.13;4485920;32;20104;-83
2023/01/12 11:17:37;;;;;;;14.48;6.65;;;;;;;11.67;57.64;99106.66;4473016;32;20104;-83
2023/01/12 11:20:32;;;;;;;13.77;6.10;;;;;;;11.31;58.46;99100.63;4422358;32;20135;-83
2023/01/12 11:23:02;;;;;;;13.25;5.22;;;;;;;10.94;59.47;99089.34;4376905;32;20106;-84
2023/01/12 11:25:34;;;;;;;14.48;5.40;;;;;;;11.25;58.48;99082.47;4375666;32;20118;-83
2023/01/12 11:28:10;;;;;;;14.80;5.90;;;;;;;10.70;59.55;99086.19;4376718;32;20167;-83
2023/01/12 11:30:42;;;;;;;14.50;5.30;;;;;;;10.40;60.50;99094.66;4376710;32;20078;-83
2023/01/12 11:33:15;;;;;;;15.35;6.20;;;;;;;9.95;62.48;99089.81;4376917;32;20095;-82
2023/01/12 11:35:53;;;;;;;15.10;6.32;;;;;;;10.10;61.79;99093.47;4376750;32;20291;-83
2023/01/12 11:38:26;;;;;;;16.45;6.62;;;;;;;9.58;63.13;99092.38;4376708;32;20086;-83
2023/01/12 11:40:55;;;;;;;14.50;6.30;;;;;;;10.21;61.64;99088.56;4376658;32;20141;-83
2023/01/12 11:43:57;;;;;;;15.88;6.25;;;;;;;10.84;60.07;99082.84;4364212;32;20203;-83
2023/01/12 11:46:31;;;;;;;17.55;6.30;;;;;;;10.58;60.58;99081.50;4376535;32;20411;-83
2023/01/12 11:49:17;;;;;;;17.52;6.18;;;;;;;10.60;60.62;99087.56;4376517;32;20592;-83
2023/01/12 11:51:42;;;;;;;14.18;6.72;;;;;;;10.74;60.43;99084.22;4376680;32;20484;-83
2023/01/12 11:54:13;;;;;;;15.07;6.82;;;;;;;10.69;60.36;99081.84;4376628;32;20137;-83
2023/01/12 11:56:41;;;;;;;15.00;6.10;;;;;;;10.97;59.29;99085.69;4400352;32;20126;-83
2023/01/12 11:59:13;;;;;;;;;;;;;;;11.26;58.35;99075.41;4442294;32;20142;-83
2023/01/12 12:02:00;;;;;;;14.87;6.37;;;;;;;11.17;58.51;99072.34;4486139;31;19972;-83
2023/01/12 12:04:32;;;;;;;13.57;5.80;;;;;;;10.91;59.38;99078.94;4484987;32;20156;-83
2023/01/12 12:07:06;;;;;;;14.57;6.03;;;;;;;11.16;58.63;99069.78;4484553;32;20108;-83
2023/01/12 12:09:44;;;;;;;12.88;5.85;;;;;;;11.32;57.89;99064.53;4486084;31;20368;-83
2023/01/12 12:12:12;;;;;;;15.03;6.27;;;;;;;11.13;58.58;99068.16;4484781;32;20440;-84